Time;durP1;ratioP1;P1;durP2;ratioP2;P2;SDS_P1;SDS_P2;PMS_P1;PMS_P2;Temp;Humidity;BMP_temperature;BMP_pressure;BME280_temperature;BME280_humidity;BME280_pressure;Samples;Min_cycle;Max_cycle;Signal;HPM_P1;HPM_P2
2022/10/22 00:00:15;;;;;;;12.02;8.10;;;;;;;;;;5052941;28;20029;-75
2022/10/22 00:02:41;;;;;;;14.20;7.32;;;;;;;;;;5054883;28;20025;-75
2022/10/22 00:05:08;;;;;;;12.13;7.20;;;;;;;;;;5055089;28;20155;-75
2022/10/22 00:07:34;;;;;;;11.15;6.82;;;;;;;;;;5051595;28;20027;-75
2022/10/22 00:10:00;;;;;;;9.15;6.80;;;;;;;;;;5051631;28;20436;-75
2022/10/22 00:12:26;;;;;;;10.30;7.20;;;;;;;;;;5038882;28;20053;-74
2022/10/22 00:14:53;;;;;;;9.60;6.53;;;;;;;;;;5042145;28;20501;-75
2022/10/22 00:17:19;;;;;;;10.85;7.03;;;;;;;;;;5043969;28;20064;-75
2022/10/22 00:19:45;;;;;;;13.38;7.57;;;;;;;;;;5044244;28;20123;-75
2022/10/22 00:22:11;;;;;;;11.65;7.20;;;;;;;;;;5054534;28;20060;-74
2022/10/22 00:24:38;;;;;;;12.57;7.40;;;;;;;;;;5045034;28;20399;-75
2022/10/22 00:27:05;;;;;;;13.10;7.18;;;;;;;;;;5047565;28;20108;-74
2022/10/22 00:29:32;;;;;;;13.93;7.80;;;;;;;;;;5043157;28;20021;-75
2022/10/22 00:31:58;;;;;;;12.05;7.30;;;;;;;;;;5047108;28;20170;-75
2022/10/22 00:34:24;;;;;;;15.30;8.00;;;;;;;;;;5040013;28;20507;-75
2022/10/22 00:36:50;;;;;;;14.07;7.75;;;;;;;;;;5041270;28;20379;-74
2022/10/22 00:39:18;;;;;;;13.00;7.40;;;;;;;;;;5044463;28;20372;-74
2022/10/22 00:41:46;;;;;;;10.60;7.55;;;;;;;;;;5036724;28;20025;-75
2022/10/22 00:44:30;;;;;;;12.02;7.75;;;;;;;;;;5035596;28;20398;-75
2022/10/22 00:46:56;;;;;;;17.00;7.95;;;;;;;;;;5049959;28;20079;-75
2022/10/22 00:49:22;;;;;;;14.00;7.55;;;;;;;;;;5050061;28;20381;-75
2022/10/22 00:51:48;;;;;;;13.70;7.32;;;;;;;;;;5050748;28;20029;-75
2022/10/22 00:54:14;;;;;;;10.85;7.00;;;;;;;;;;5040103;28;20099;-75
2022/10/22 00:56:40;;;;;;;13.38;7.78;;;;;;;;;;5034398;28;20037;-75
2022/10/22 00:59:07;;;;;;;12.50;7.85;;;;;;;;;;5054337;28;20048;-74
2022/10/22 01:01:33;;;;;;;13.43;7.38;;;;;;;;;;5043362;28;20025;-75
2022/10/22 01:03:59;;;;;;;12.57;7.80;;;;;;;;;;5049245;28;20017;-74
2022/10/22 01:06:30;;;;;;;13.63;7.07;;;;;;;;;;5040490;28;20045;-75
2022/10/22 01:09:15;;;;;;;13.05;6.75;;;;;;;;;;5050933;28;20064;-75
2022/10/22 01:11:59;;;;;;;12.45;6.75;;;;;;;;;;5046491;28;20071;-75
2022/10/22 01:14:28;;;;;;;11.73;6.78;;;;;;;;;;5037253;28;20024;-74
2022/10/22 01:17:00;;;;;;;13.10;7.38;;;;;;;;;;5053316;28;20033;-75
2022/10/22 01:19:32;;;;;;;10.43;7.03;;;;;;;;;;5038627;28;20017;-73
2022/10/22 01:22:03;;;;;;;12.82;7.45;;;;;;;;;;5046971;28;20025;-75
2022/10/22 01:24:38;;;;;;;13.70;7.38;;;;;;;;;;5053198;28;20044;-75
2022/10/22 01:27:27;;;;;;;13.30;7.07;;;;;;;;;;5052433;28;20045;-75
2022/10/22 01:29:57;;;;;;;13.18;7.00;;;;;;;;;;4950949;29;20046;-75
2022/10/22 01:32:24;;;;;;;10.20;5.97;;;;;;;;;;4951761;29;20056;-74
2022/10/22 01:34:54;;;;;;;9.57;6.85;;;;;;;;;;4951585;29;20049;-74
2022/10/22 01:37:21;;;;;;;11.10;6.63;;;;;;;;;;4953107;29;20083;-74
2022/10/22 01:39:48;;;;;;;11.32;7.55;;;;;;;;;;4952582;29;20492;-75
2022/10/22 01:42:14;;;;;;;12.63;6.65;;;;;;;;;;4948909;29;20059;-75
2022/10/22 01:44:40;;;;;;;12.10;6.53;;;;;;;;;;4948801;29;20102;-75
2022/10/22 01:47:25;;;;;;;14.40;6.60;;;;;;;;;;4949159;29;20047;-75
2022/10/22 01:49:54;;;;;;;9.73;6.43;;;;;;;;;;4952198;29;20440;-75
2022/10/22 01:52:20;;;;;;;10.50;5.70;;;;;;;;;;4953067;29;20027;-75
2022/10/22 01:54:51;;;;;;;8.57;5.68;;;;;;;;;;4944461;29;20039;-75
2022/10/22 01:57:28;;;;;;;9.98;5.50;;;;;;;;;;4951459;29;20430;-75
2022/10/22 02:00:01;;;;;;;12.15;6.30;;;;;;;;;;4942487;28;20091;-74
2022/10/22 02:02:37;;;;;;;14.57;6.20;;;;;;;;;;4946665;29;20034;-74
2022/10/22 02:05:19;;;;;;;13.77;5.88;;;;;;;;;;4949248;29;20094;-75
2022/10/22 02:07:57;;;;;;;11.65;5.32;;;;;;;;;;5037269;28;20048;-75
2022/10/22 02:10:24;;;;;;;10.90;5.80;;;;;;;;;;5055458;28;20600;-74
2022/10/22 02:12:53;;;;;;;9.65;5.72;;;;;;;;;;5055013;28;20132;-75
2022/10/22 02:15:22;;;;;;;9.23;5.60;;;;;;;;;;5051463;28;20017;-74
2022/10/22 02:17:48;;;;;;;9.88;5.03;;;;;;;;;;5024782;28;20033;-73
2022/10/22 02:20:17;;;;;;;13.75;5.20;;;;;;;;;;5037030;28;20523;-74
2022/10/22 02:22:43;;;;;;;9.98;4.80;;;;;;;;;;5043187;28;20511;-74
2022/10/22 02:25:10;;;;;;;10.43;4.57;;;;;;;;;;5044746;28;20045;-75
2022/10/22 02:27:40;;;;;;;7.75;4.70;;;;;;;;;;5051324;28;20124;-75
2022/10/22 02:30:12;;;;;;;9.82;4.85;;;;;;;;;;5043483;28;20092;-74
2022/10/22 02:32:43;;;;;;;7.15;4.55;;;;;;;;;;5041971;28;20032;-74
2022/10/22 02:35:11;;;;;;;8.75;4.40;;;;;;;;;;5055546;28;20064;-74
2022/10/22 02:37:37;;;;;;;8.85;4.53;;;;;;;;;;5046505;28;20035;-74
2022/10/22 02:40:04;;;;;;;9.23;4.68;;;;;;;;;;5055394;28;20091;-75
2022/10/22 02:42:30;;;;;;;9.98;4.60;;;;;;;;;;5048191;28;20026;-74
2022/10/22 02:44:56;;;;;;;9.73;4.90;;;;;;;;;;5049029;28;20471;-74
2022/10/22 02:47:22;;;;;;;12.20;4.60;;;;;;;;;;5051119;28;20034;-74
2022/10/22 02:49:48;;;;;;;9.45;4.75;;;;;;;;;;5046054;28;20025;-75
2022/10/22 02:52:14;;;;;;;6.03;3.92;;;;;;;;;;5053936;28;20031;-75
2022/10/22 02:54:40;;;;;;;8.93;4.22;;;;;;;;;;5055235;28;20390;-74
2022/10/22 02:57:06;;;;;;;8.70;4.47;;;;;;;;;;5051760;28;20586;-75
2022/10/22 02:59:33;;;;;;;9.02;4.18;;;;;;;;;;5047057;28;20040;-74
2022/10/22 03:01:59;;;;;;;8.00;4.10;;;;;;;;;;5054812;28;20023;-75
2022/10/22 03:04:25;;;;;;;9.82;4.43;;;;;;;;;;5050910;28;20033;-75
2022/10/22 03:06:51;;;;;;;6.47;4.10;;;;;;;;;;5055741;28;20029;-75
2022/10/22 03:09:17;;;;;;;9.15;4.30;;;;;;;;;;5049578;28;20056;-73
2022/10/22 03:11:43;;;;;;;8.18;4.50;;;;;;;;;;5046100;28;20064;-75
2022/10/22 03:14:09;;;;;;;14.55;4.20;;;;;;;;;;5055504;28;20158;-75
2022/10/22 03:16:35;;;;;;;8.98;4.15;;;;;;;;;;5047773;28;20025;-75
2022/10/22 03:19:01;;;;;;;8.48;3.85;;;;;;;;;;5049650;28;20548;-74
2022/10/22 03:21:35;;;;;;;12.82;4.30;;;;;;;;;;5036318;28;20021;-75
2022/10/22 03:24:04;;;;;;;12.23;4.68;;;;;;;;;;5047414;28;20108;-74
2022/10/22 03:26:31;;;;;;;7.75;4.50;;;;;;;;;;5050180;28;20038;-75
2022/10/22 03:28:59;;;;;;;7.13;4.10;;;;;;;;;;5049068;28;20498;-75
2022/10/22 03:31:25;;;;;;;10.45;5.15;;;;;;;;;;5053589;28;20148;-74
2022/10/22 03:33:51;;;;;;;10.85;4.15;;;;;;;;;;5044115;28;20040;-74
2022/10/22 03:36:17;;;;;;;13.75;5.13;;;;;;;;;;5037360;28;20022;-75
2022/10/22 03:38:43;;;;;;;6.35;4.35;;;;;;;;;;5055240;28;20017;-76
2022/10/22 03:41:10;;;;;;;7.90;5.22;;;;;;;;;;5050473;28;20025;-75
2022/10/22 03:43:37;;;;;;;13.95;8.23;;;;;;;;;;5042950;28;20075;-75
2022/10/22 03:46:03;;;;;;;11.00;6.00;;;;;;;;;;5055281;28;20029;-75
2022/10/22 03:48:29;;;;;;;17.30;7.18;;;;;;;;;;5053175;28;20593;-74
2022/10/22 03:50:55;;;;;;;13.18;6.50;;;;;;;;;;5050203;28;20033;-74
2022/10/22 03:53:21;;;;;;;21.33;6.50;;;;;;;;;;5046264;28;20112;-75
2022/10/22 03:55:47;;;;;;;14.82;6.47;;;;;;;;;;5052673;28;20025;-74
2022/10/22 03:58:13;;;;;;;10.80;5.68;;;;;;;;;;5054536;28;20028;-75
2022/10/22 04:00:39;;;;;;;8.63;5.60;;;;;;;;;;5054607;28;20078;-74
2022/10/22 04:03:05;;;;;;;18.35;8.13;;;;;;;;;;5049407;28;20016;-75
2022/10/22 04:05:32;;;;;;;34.22;8.40;;;;;;;;;;5050117;28;20041;-74
2022/10/22 04:07:58;;;;;;;14.93;7.05;;;;;;;;;;5047549;28;20024;-74
2022/10/22 04:10:24;;;;;;;12.75;7.88;;;;;;;;;;5044851;28;20028;-75
2022/10/22 04:12:50;;;;;;;16.50;7.72;;;;;;;;;;5049505;28;20025;-74
2022/10/22 04:15:17;;;;;;;14.38;9.82;;;;;;;;;;5044375;28;20486;-75
2022/10/22 04:17:43;;;;;;;33.47;20.17;;;;;;;;;;5054289;28;20032;-74
2022/10/22 04:20:10;;;;;;;66.07;41.95;;;;;;;;;;5031128;28;20055;-74
2022/10/22 04:22:36;;;;;;;72.65;44.45;;;;;;;;;;5049233;28;20028;-74
2022/10/22 04:25:02;;;;;;;74.82;40.33;;;;;;;;;;5038443;28;20044;-75
2022/10/22 04:27:32;;;;;;;69.13;42.42;;;;;;;;;;5048563;28;20506;-73
2022/10/22 04:29:58;;;;;;;94.63;52.53;;;;;;;;;;5047680;28;20025;-75
2022/10/22 04:32:24;;;;;;;99.72;59.28;;;;;;;;;;5052782;28;20032;-74
2022/10/22 04:34:50;;;;;;;112.47;64.72;;;;;;;;;;5047477;28;20032;-75
2022/10/22 04:37:17;;;;;;;120.40;70.22;;;;;;;;;;5047783;28;20025;-75
2022/10/22 04:39:43;;;;;;;98.82;57.42;;;;;;;;;;5040914;28;20025;-73
2022/10/22 04:42:09;;;;;;;102.50;61.42;;;;;;;;;;5045873;28;20491;-75
2022/10/22 04:44:35;;;;;;;108.28;61.85;;;;;;;;;;5035185;28;20394;-74
2022/10/22 04:47:01;;;;;;;110.82;63.03;;;;;;;;;;5041454;28;20043;-75
2022/10/22 04:49:27;;;;;;;99.70;60.05;;;;;;;;;;5050353;28;20747;-75
2022/10/22 04:51:53;;;;;;;119.38;58.78;;;;;;;;;;5026468;28;20017;-73
2022/10/22 04:54:19;;;;;;;85.90;50.35;;;;;;;;;;5049707;28;20418;-73
2022/10/22 04:56:45;;;;;;;91.97;53.47;;;;;;;;;;5050176;28;20033;-73
2022/10/22 04:59:14;;;;;;;82.22;44.15;;;;;;;;;;5043922;28;20037;-73
2022/10/22 05:01:41;;;;;;;45.67;26.45;;;;;;;;;;5047202;28;20040;-73
2022/10/22 05:04:07;;;;;;;30.52;19.35;;;;;;;;;;5045464;28;20037;-73
2022/10/22 05:06:35;;;;;;;22.67;11.50;;;;;;;;;;5043078;28;20512;-73
2022/10/22 05:09:03;;;;;;;28.13;15.27;;;;;;;;;;5045902;28;20029;-75
2022/10/22 05:11:33;;;;;;;22.80;13.00;;;;;;;;;;5051217;28;20056;-74
2022/10/22 05:14:00;;;;;;;23.92;12.75;;;;;;;;;;5053838;28;20061;-74
2022/10/22 05:16:27;;;;;;;30.88;11.18;;;;;;;;;;5050556;28;20032;-74
2022/10/22 05:18:53;;;;;;;17.85;10.38;;;;;;;;;;5055195;28;20025;-73
2022/10/22 05:21:20;;;;;;;15.35;8.90;;;;;;;;;;5054303;28;20086;-73
2022/10/22 05:23:47;;;;;;;14.50;8.43;;;;;;;;;;5054815;28;20032;-74
2022/10/22 05:26:14;;;;;;;26.65;9.70;;;;;;;;;;5046733;28;20502;-75
2022/10/22 05:28:40;;;;;;;15.07;7.18;;;;;;;;;;5055050;28;20028;-76
2022/10/22 05:31:07;;;;;;;16.15;6.85;;;;;;;;;;5061480;28;20552;-74
2022/10/22 05:33:33;;;;;;;21.10;7.75;;;;;;;;;;5057181;28;20029;-74
2022/10/22 05:36:00;;;;;;;13.93;7.38;;;;;;;;;;5050954;28;20445;-74
2022/10/22 05:38:26;;;;;;;16.45;7.68;;;;;;;;;;5057603;28;20401;-75
2022/10/22 05:41:02;;;;;;;12.65;7.18;;;;;;;;;;5057074;28;20025;-74
2022/10/22 05:43:29;;;;;;;11.35;5.72;;;;;;;;;;5060324;28;20027;-74
2022/10/22 05:45:56;;;;;;;16.63;7.43;;;;;;;;;;5054402;28;20052;-76
2022/10/22 05:48:22;;;;;;;10.55;5.63;;;;;;;;;;5048995;28;20029;-74
2022/10/22 05:50:49;;;;;;;13.13;6.00;;;;;;;;;;5051874;28;20063;-74
2022/10/22 05:53:18;;;;;;;11.18;6.03;;;;;;;;;;5052270;28;20025;-75
2022/10/22 05:55:44;;;;;;;16.13;6.15;;;;;;;;;;5062031;28;20056;-74
2022/10/22 05:58:11;;;;;;;18.02;6.35;;;;;;;;;;5056718;28;20046;-75
2022/10/22 06:00:37;;;;;;;37.92;7.07;;;;;;;;;;5045978;28;20051;-75
2022/10/22 06:03:06;;;;;;;19.58;6.20;;;;;;;;;;5051899;28;20017;-74
2022/10/22 06:05:36;;;;;;;15.40;5.72;;;;;;;;;;5060773;28;20061;-75
2022/10/22 06:08:05;;;;;;;14.32;4.85;;;;;;;;;;5052480;28;20028;-76
2022/10/22 06:10:31;;;;;;;22.60;5.80;;;;;;;;;;5045911;28;20029;-75
2022/10/22 06:13:00;;;;;;;21.63;6.22;;;;;;;;;;5058533;28;20466;-75
2022/10/22 06:15:26;;;;;;;14.27;5.78;;;;;;;;;;5047716;28;20025;-75
2022/10/22 06:17:52;;;;;;;11.43;5.15;;;;;;;;;;5051237;28;20018;-75
2022/10/22 06:20:18;;;;;;;10.48;5.40;;;;;;;;;;5038776;28;20028;-75
2022/10/22 06:22:59;;;;;;;11.18;5.38;;;;;;;;;;5055508;28;20021;-75
2022/10/22 06:25:25;;;;;;;12.82;4.30;;;;;;;;;;5022579;28;20038;-77
2022/10/22 06:27:51;;;;;;;10.10;5.00;;;;;;;;;;5055411;28;20057;-75
2022/10/22 06:30:17;;;;;;;15.88;5.50;;;;;;;;;;5048753;28;20112;-75
2022/10/22 06:32:43;;;;;;;11.75;4.95;;;;;;;;;;5058879;28;20021;-76
2022/10/22 06:35:09;;;;;;;8.63;5.28;;;;;;;;;;5065031;28;20104;-78
2022/10/22 06:37:36;;;;;;;12.77;5.20;;;;;;;;;;5039687;28;20134;-74
2022/10/22 06:40:02;;;;;;;12.38;5.00;;;;;;;;;;5057981;28;20088;-74
2022/10/22 06:42:28;;;;;;;18.80;5.75;;;;;;;;;;5055714;28;20373;-75
2022/10/22 06:44:54;;;;;;;9.13;4.93;;;;;;;;;;5053771;28;20444;-74
2022/10/22 06:47:20;;;;;;;16.60;5.57;;;;;;;;;;5055684;28;20605;-75
2022/10/22 06:49:48;;;;;;;10.70;4.60;;;;;;;;;;5038035;28;20036;-74
2022/10/22 06:52:15;;;;;;;9.43;4.55;;;;;;;;;;5050784;28;20013;-75
2022/10/22 06:54:41;;;;;;;13.60;4.60;;;;;;;;;;5049312;28;20029;-74
2022/10/22 06:57:07;;;;;;;12.90;4.57;;;;;;;;;;5044653;28;20025;-74
2022/10/22 06:59:33;;;;;;;8.77;4.72;;;;;;;;;;5058146;28;20103;-74
2022/10/22 07:01:59;;;;;;;21.02;5.22;;;;;;;;;;5059612;28;20021;-75
2022/10/22 07:04:25;;;;;;;10.30;4.47;;;;;;;;;;5056112;28;20027;-75
2022/10/22 07:06:51;;;;;;;10.20;6.00;;;;;;;;;;5061069;28;20085;-73
2022/10/22 07:09:17;;;;;;;18.02;6.20;;;;;;;;;;5058355;28;20029;-74
2022/10/22 07:11:44;;;;;;;10.25;6.00;;;;;;;;;;5052299;28;20030;-74
2022/10/22 07:14:11;;;;;;;13.77;5.80;;;;;;;;;;5064754;28;20096;-75
2022/10/22 07:16:37;;;;;;;13.60;5.75;;;;;;;;;;5040384;28;20021;-74
2022/10/22 07:19:04;;;;;;;13.57;5.68;;;;;;;;;;5049527;28;20028;-74
2022/10/22 07:21:31;;;;;;;12.52;5.72;;;;;;;;;;5055292;28;20037;-74
2022/10/22 07:23:58;;;;;;;13.40;5.53;;;;;;;;;;5060434;28;20093;-74
2022/10/22 07:26:25;;;;;;;14.40;6.00;;;;;;;;;;5070185;28;20051;-75
2022/10/22 07:28:52;;;;;;;11.82;5.38;;;;;;;;;;5054282;28;20017;-73
2022/10/22 07:31:18;;;;;;;19.15;5.78;;;;;;;;;;5058794;28;20036;-74
2022/10/22 07:33:44;;;;;;;10.70;5.70;;;;;;;;;;5070631;28;20157;-74
2022/10/22 07:36:16;;;;;;;13.63;6.60;;;;;;;;;;5068889;28;20025;-73
2022/10/22 07:38:42;;;;;;;20.80;9.45;;;;;;;;;;5064742;28;20053;-73
2022/10/22 07:41:08;;;;;;;21.13;8.77;;;;;;;;;;5060302;28;20032;-74
2022/10/22 07:43:34;;;;;;;27.52;8.85;;;;;;;;;;5048784;28;20100;-74
2022/10/22 07:46:01;;;;;;;18.60;6.90;;;;;;;;;;5070363;28;20086;-73
2022/10/22 07:48:27;;;;;;;22.85;7.30;;;;;;;;;;5067458;28;20044;-73
2022/10/22 07:50:53;;;;;;;19.95;7.55;;;;;;;;;;5048161;28;20532;-73
2022/10/22 07:53:20;;;;;;;21.75;7.55;;;;;;;;;;5049025;28;20079;-73
2022/10/22 07:55:49;;;;;;;23.70;7.65;;;;;;;;;;5061566;28;20083;-73
2022/10/22 07:58:15;;;;;;;25.55;7.25;;;;;;;;;;5046571;28;20074;-74
2022/10/22 08:00:41;;;;;;;16.73;8.35;;;;;;;;;;5049609;28;20044;-73
2022/10/22 08:03:09;;;;;;;29.58;10.02;;;;;;;;;;5059404;28;20029;-73
2022/10/22 08:05:35;;;;;;;18.30;10.32;;;;;;;;;;5056982;28;20392;-72
2022/10/22 08:08:01;;;;;;;18.15;11.18;;;;;;;;;;5055681;28;20025;-74
2022/10/22 08:10:27;;;;;;;17.17;11.55;;;;;;;;;;5047343;28;20108;-72
2022/10/22 08:12:53;;;;;;;17.85;10.57;;;;;;;;;;5044935;28;20049;-73
2022/10/22 08:15:21;;;;;;;16.27;10.38;;;;;;;;;;5042754;28;20427;-73
2022/10/22 08:17:47;;;;;;;16.95;9.75;;;;;;;;;;5034999;28;20063;-73
2022/10/22 08:20:13;;;;;;;17.15;9.65;;;;;;;;;;5039026;28;20012;-72
2022/10/22 08:22:39;;;;;;;22.13;10.05;;;;;;;;;;5053177;28;20151;-72
2022/10/22 08:25:05;;;;;;;19.83;9.73;;;;;;;;;;5057637;28;20060;-72
2022/10/22 08:27:31;;;;;;;18.58;9.68;;;;;;;;;;5052160;28;20037;-73
2022/10/22 08:29:57;;;;;;;20.13;9.77;;;;;;;;;;5054118;28;20053;-74
2022/10/22 08:32:23;;;;;;;22.63;10.63;;;;;;;;;;5051346;28;20025;-72
2022/10/22 08:34:49;;;;;;;22.17;11.38;;;;;;;;;;5061195;28;20031;-73
2022/10/22 08:37:16;;;;;;;25.27;12.57;;;;;;;;;;5050591;28;20104;-73
2022/10/22 08:39:42;;;;;;;28.02;12.45;;;;;;;;;;5054674;28;20085;-72
2022/10/22 08:42:21;;;;;;;21.30;11.00;;;;;;;;;;5050698;28;20029;-73
2022/10/22 08:44:47;;;;;;;24.50;10.88;;;;;;;;;;5046680;28;20033;-73
2022/10/22 08:47:22;;;;;;;29.42;12.10;;;;;;;;;;5049125;28;20079;-77
2022/10/22 08:49:48;;;;;;;26.52;12.05;;;;;;;;;;5056544;28;20088;-74
2022/10/22 08:52:16;;;;;;;31.73;12.60;;;;;;;;;;5051986;28;20089;-73
2022/10/22 08:54:53;;;;;;;24.65;11.80;;;;;;;;;;5051951;28;20064;-74
2022/10/22 08:57:28;;;;;;;20.13;10.85;;;;;;;;;;5039393;28;20165;-74
2022/10/22 08:59:55;;;;;;;21.63;11.02;;;;;;;;;;5053213;28;20025;-74
2022/10/22 09:02:37;;;;;;;21.42;10.13;;;;;;;;;;5049181;28;20038;-74
2022/10/22 09:05:12;;;;;;;17.95;9.50;;;;;;;;;;5030526;28;20501;-74
2022/10/22 09:07:41;;;;;;;16.30;9.48;;;;;;;;;;5051200;28;20023;-73
2022/10/22 09:10:09;;;;;;;18.40;10.80;;;;;;;;;;5055466;28;20025;-74
2022/10/22 09:12:35;;;;;;;20.10;10.35;;;;;;;;;;5056276;28;20023;-74
2022/10/22 09:15:01;;;;;;;30.83;16.00;;;;;;;;;;5055740;28;20505;-73
2022/10/22 09:17:37;;;;;;;39.65;18.95;;;;;;;;;;5057109;28;20024;-74
2022/10/22 09:20:09;;;;;;;37.03;17.65;;;;;;;;;;5045513;28;20498;-74
2022/10/22 09:22:50;;;;;;;37.80;19.13;;;;;;;;;;5055807;28;20039;-73
2022/10/22 09:25:24;;;;;;;26.98;14.52;;;;;;;;;;5054445;28;20047;-74
2022/10/22 09:27:57;;;;;;;27.38;13.25;;;;;;;;;;5056741;28;20024;-74
2022/10/22 09:30:24;;;;;;;22.47;12.90;;;;;;;;;;5055706;28;20033;-74
2022/10/22 09:33:01;;;;;;;32.78;15.23;;;;;;;;;;5050902;28;20767;-73
2022/10/22 09:35:27;;;;;;;24.25;13.10;;;;;;;;;;5044345;28;20083;-73
2022/10/22 09:37:55;;;;;;;28.23;13.35;;;;;;;;;;5048394;28;20356;-74
2022/10/22 09:40:23;;;;;;;35.70;25.48;;;;;;;;;;5050251;28;20029;-73
2022/10/22 09:42:49;;;;;;;20.80;11.98;;;;;;;;;;5044623;28;20096;-74
2022/10/22 09:45:19;;;;;;;27.25;12.88;;;;;;;;;;5052693;28;20025;-74
2022/10/22 09:47:46;;;;;;;21.52;11.70;;;;;;;;;;5055540;28;20036;-74
2022/10/22 09:50:12;;;;;;;21.25;12.35;;;;;;;;;;5059645;28;20096;-73
2022/10/22 09:52:40;;;;;;;16.15;9.20;;;;;;;;;;5045209;28;20060;-74
2022/10/22 09:55:32;;;;;;;19.85;10.48;;;;;;;;;;5060280;28;20032;-73
2022/10/22 09:58:00;;;;;;;21.25;11.70;;;;;;;;;;5050520;28;20397;-74
2022/10/22 10:00:27;;;;;;;30.00;12.93;;;;;;;;;;5045631;28;20411;-73
2022/10/22 10:02:55;;;;;;;19.88;10.82;;;;;;;;;;5055294;28;20025;-75
2022/10/22 10:05:26;;;;;;;18.10;9.23;;;;;;;;;;5061067;28;20479;-74
2022/10/22 10:07:52;;;;;;;17.67;8.75;;;;;;;;;;5054896;28;20053;-74
2022/10/22 10:10:33;;;;;;;21.60;9.00;;;;;;;;;;5049312;28;20029;-74
2022/10/22 10:13:18;;;;;;;16.80;7.80;;;;;;;;;;5048476;28;20028;-73
2022/10/22 10:15:49;;;;;;;15.52;9.05;;;;;;;;;;5060447;28;20036;-74
2022/10/22 10:18:15;;;;;;;22.77;9.45;;;;;;;;;;5055984;28;20052;-74
2022/10/22 10:20:47;;;;;;;20.52;9.65;;;;;;;;;;5051620;28;20029;-75
2022/10/22 10:23:22;;;;;;;17.75;9.43;;;;;;;;;;5045954;28;20108;-74
2022/10/22 10:25:52;;;;;;;16.35;9.30;;;;;;;;;;5053287;28;20064;-74
2022/10/22 10:28:21;;;;;;;14.00;7.80;;;;;;;;;;5045301;28;20545;-74
2022/10/22 10:30:59;;;;;;;15.73;7.78;;;;;;;;;;5044131;28;20077;-76
2022/10/22 10:33:28;;;;;;;19.40;8.32;;;;;;;;;;5055033;28;20470;-73
2022/10/22 10:36:04;;;;;;;18.25;7.65;;;;;;;;;;5051856;28;20052;-74
2022/10/22 10:38:30;;;;;;;20.02;7.95;;;;;;;;;;5056730;28;20035;-74
2022/10/22 10:41:06;;;;;;;16.63;8.00;;;;;;;;;;5054179;28;20021;-74
2022/10/22 10:43:56;;;;;;;15.52;7.95;;;;;;;;;;5054933;28;20033;-73
2022/10/22 10:46:32;;;;;;;19.38;8.65;;;;;;;;;;5049815;28;20101;-72
2022/10/22 10:49:19;;;;;;;21.38;8.73;;;;;;;;;;5055607;28;20013;-74
2022/10/22 10:51:48;;;;;;;15.20;8.02;;;;;;;;;;5053999;28;20033;-74
2022/10/22 10:54:33;;;;;;;15.82;8.40;;;;;;;;;;5038166;28;20430;-73
2022/10/22 10:57:14;;;;;;;13.15;6.95;;;;;;;;;;5050754;28;20025;-73
2022/10/22 10:59:40;;;;;;;13.48;7.28;;;;;;;;;;5057065;28;20498;-75
2022/10/22 11:02:31;;;;;;;18.05;6.82;;;;;;;;;;5052245;28;20036;-73
2022/10/22 11:05:00;;;;;;;10.02;6.07;;;;;;;;;;5045850;28;20069;-73
2022/10/22 11:07:30;;;;;;;12.80;5.30;;;;;;;;;;5052375;28;20032;-74
2022/10/22 11:09:59;;;;;;;9.88;5.32;;;;;;;;;;5045867;28;20025;-74
2022/10/22 11:12:30;;;;;;;9.10;5.45;;;;;;;;;;5053522;28;20017;-73
2022/10/22 11:15:22;;;;;;;12.35;5.40;;;;;;;;;;5056178;28;20427;-74
2022/10/22 11:17:49;;;;;;;10.98;5.22;;;;;;;;;;5048396;28;20045;-74
2022/10/22 11:20:19;;;;;;;9.50;5.32;;;;;;;;;;5058673;28;20465;-74
2022/10/22 11:22:51;;;;;;;12.32;5.85;;;;;;;;;;5047949;28;20029;-74
2022/10/22 11:25:27;;;;;;;15.57;5.53;;;;;;;;;;5055196;28;20490;-74
2022/10/22 11:28:20;;;;;;;10.13;5.40;;;;;;;;;;5044108;28;20048;-74
2022/10/22 11:30:49;;;;;;;12.77;4.93;;;;;;;;;;5038647;28;20029;-75
2022/10/22 11:33:18;;;;;;;10.30;4.72;;;;;;;;;;5055718;28;20083;-74
2022/10/22 11:35:45;;;;;;;10.43;5.45;;;;;;;;;;5056639;28;20033;-73
2022/10/22 11:38:13;;;;;;;12.13;5.30;;;;;;;;;;5057030;28;20119;-74
2022/10/22 11:41:02;;;;;;;13.02;5.45;;;;;;;;;;5055616;28;20021;-74
2022/10/22 11:43:34;;;;;;;10.48;5.30;;;;;;;;;;5057782;28;20434;-75
2022/10/22 11:46:02;;;;;;;15.88;5.90;;;;;;;;;;5055495;28;20098;-75
2022/10/22 11:48:28;;;;;;;13.55;5.68;;;;;;;;;;5041039;28;20440;-74
2022/10/22 11:51:00;;;;;;;15.55;5.30;;;;;;;;;;5039171;28;20048;-74
2022/10/22 11:53:37;;;;;;;13.45;5.00;;;;;;;;;;5058448;28;20029;-74
2022/10/22 11:56:03;;;;;;;13.70;5.00;;;;;;;;;;5044484;28;20532;-74
2022/10/22 11:58:41;;;;;;;10.18;4.93;;;;;;;;;;5030296;28;20021;-74
2022/10/22 12:01:07;;;;;;;15.02;4.72;;;;;;;;;;5047111;28;20041;-75
2022/10/22 12:03:33;;;;;;;12.88;4.40;;;;;;;;;;5049717;28;20032;-74
2022/10/22 12:06:10;;;;;;;11.02;4.70;;;;;;;;;;5049145;28;20509;-74
2022/10/22 12:08:42;;;;;;;8.00;4.35;;;;;;;;;;5030000;28;20112;-74
2022/10/22 12:11:11;;;;;;;8.82;4.15;;;;;;;;;;5058642;28;20052;-74
2022/10/22 12:14:01;;;;;;;9.70;4.28;;;;;;;;;;5058545;28;20383;-76
2022/10/22 12:16:29;;;;;;;10.48;4.85;;;;;;;;;;5045429;28;20021;-75
2022/10/22 12:18:58;;;;;;;8.80;4.40;;;;;;;;;;5050975;28;20076;-74
2022/10/22 12:21:24;;;;;;;15.10;4.50;;;;;;;;;;5036326;28;20029;-75
2022/10/22 12:23:50;;;;;;;11.07;4.70;;;;;;;;;;5048499;28;20037;-75
2022/10/22 12:26:27;;;;;;;14.75;4.70;;;;;;;;;;5040136;28;20049;-75
2022/10/22 12:28:57;;;;;;;9.07;4.35;;;;;;;;;;5045714;28;20052;-73
2022/10/22 12:31:23;;;;;;;10.15;4.50;;;;;;;;;;5056065;28;20066;-75
2022/10/22 12:33:58;;;;;;;10.77;4.82;;;;;;;;;;5050814;28;20382;-76
2022/10/22 12:36:32;;;;;;;9.45;5.13;;;;;;;;;;5039885;28;20028;-77
2022/10/22 12:39:11;;;;;;;11.85;4.80;;;;;;;;;;5024400;28;20029;-74
2022/10/22 12:41:38;;;;;;;9.13;4.82;;;;;;;;;;5033465;28;20044;-76
2022/10/22 12:44:05;;;;;;;13.00;5.32;;;;;;;;;;5054871;28;20119;-75
2022/10/22 12:46:33;;;;;;;15.63;6.18;;;;;;;;;;5056077;28;20509;-75
2022/10/22 12:49:01;;;;;;;13.80;5.10;;;;;;;;;;5038866;28;20021;-73
2022/10/22 12:51:27;;;;;;;10.13;5.43;;;;;;;;;;5051253;28;20425;-73
2022/10/22 12:53:55;;;;;;;15.98;5.80;;;;;;;;;;5040335;28;20104;-74
2022/10/22 12:56:30;;;;;;;12.73;4.93;;;;;;;;;;5045902;28;20025;-74
2022/10/22 12:59:01;;;;;;;8.20;4.78;;;;;;;;;;5052539;28;20021;-73
2022/10/22 13:01:28;;;;;;;15.90;5.03;;;;;;;;;;5043248;28;20066;-74
2022/10/22 13:04:24;;;;;;;13.82;5.43;;;;;;;;;;5051306;28;20033;-74
2022/10/22 13:06:51;;;;;;;11.57;7.10;;;;;;;;;;5027587;28;20421;-74
2022/10/22 13:09:17;;;;;;;14.77;8.18;;;;;;;;;;5056859;28;20025;-74
2022/10/22 13:11:51;;;;;;;16.17;6.60;;;;;;;;;;5052985;28;20043;-73
2022/10/22 13:14:21;;;;;;;15.00;5.85;;;;;;;;;;5042198;28;20052;-75
2022/10/22 13:17:06;;;;;;;12.55;5.47;;;;;;;;;;5055145;28;20021;-75
2022/10/22 13:19:37;;;;;;;13.82;7.13;;;;;;;;;;5058003;28;20021;-75
2022/10/22 13:22:03;;;;;;;13.60;6.60;;;;;;;;;;5054565;28;20021;-75
2022/10/22 13:24:29;;;;;;;15.15;5.63;;;;;;;;;;5042067;28;20056;-74
2022/10/22 13:26:56;;;;;;;17.05;5.10;;;;;;;;;;5048654;28;20042;-74
2022/10/22 13:29:23;;;;;;;17.85;5.28;;;;;;;;;;5039884;28;20021;-75
2022/10/22 13:31:50;;;;;;;22.02;5.93;;;;;;;;;;5057018;28;20029;-75
2022/10/22 13:34:20;;;;;;;17.50;5.45;;;;;;;;;;5059832;28;20028;-74
2022/10/22 13:36:48;;;;;;;15.07;6.10;;;;;;;;;;5046638;28;20047;-74
2022/10/22 13:39:17;;;;;;;9.65;5.45;;;;;;;;;;5061162;28;20029;-74
2022/10/22 13:41:43;;;;;;;11.73;5.55;;;;;;;;;;5060316;28;20032;-75
2022/10/22 13:44:09;;;;;;;14.80;6.00;;;;;;;;;;5053888;28;20025;-75
2022/10/22 13:46:41;;;;;;;16.33;5.85;;;;;;;;;;5046237;28;20500;-74
2022/10/22 13:49:10;;;;;;;18.40;5.30;;;;;;;;;;5055434;28;20028;-74
2022/10/22 13:51:36;;;;;;;9.93;5.35;;;;;;;;;;5053462;28;20036;-75
2022/10/22 13:54:02;;;;;;;12.88;5.72;;;;;;;;;;5053002;28;20108;-75
2022/10/22 13:56:28;;;;;;;13.30;5.65;;;;;;;;;;5055856;28;20025;-74
2022/10/22 13:58:55;;;;;;;11.32;4.55;;;;;;;;;;5058594;28;20029;-74
2022/10/22 14:01:27;;;;;;;9.15;4.38;;;;;;;;;;5041271;28;20032;-74
2022/10/22 14:03:57;;;;;;;12.00;5.00;;;;;;;;;;5054016;28;20064;-75
2022/10/22 14:06:27;;;;;;;12.88;5.45;;;;;;;;;;5055556;28;20289;-74
2022/10/22 14:08:55;;;;;;;14.10;5.50;;;;;;;;;;5044622;28;20028;-74
2022/10/22 14:11:21;;;;;;;13.35;5.35;;;;;;;;;;5053965;28;20383;-74
2022/10/22 14:13:47;;;;;;;14.18;5.05;;;;;;;;;;5058107;28;20059;-75
2022/10/22 14:16:18;;;;;;;11.05;5.38;;;;;;;;;;5055524;28;20022;-74
2022/10/22 14:18:44;;;;;;;8.95;5.22;;;;;;;;;;5059032;28;20032;-74
2022/10/22 14:21:11;;;;;;;13.38;4.85;;;;;;;;;;5058300;28;20021;-75
2022/10/22 14:23:37;;;;;;;16.17;5.90;;;;;;;;;;5056788;28;20029;-75
2022/10/22 14:26:03;;;;;;;14.52;5.22;;;;;;;;;;5056111;28;20054;-76
2022/10/22 14:28:29;;;;;;;16.95;5.00;;;;;;;;;;5050389;28;20513;-75
2022/10/22 14:30:55;;;;;;;8.15;5.20;;;;;;;;;;5058049;28;20032;-74
2022/10/22 14:33:29;;;;;;;9.82;4.82;;;;;;;;;;5053870;28;20089;-75
2022/10/22 14:35:54;;;;;;;;;;;;;;;;;;5050582;28;20445;-74
2022/10/22 14:38:21;;;;;;;9.05;4.57;;;;;;;;;;5050975;28;19916;-74